Flight Track Log - Related Links

Times and Time Zones

All times are in EDT time to prevent confusion due to time zone crossing. See the N220RF flight status page for this flight to view local times or setup timezone preferences in your user account.

Time Position Orientation Groundspeed Altitude Reporting Facility
EDT Latitude Longitude Course Direction KTS MPH feet Rate Location/Type
Sun 06:23:00 PM 26.9152 -81.7246 North  Level FlightAware Approximate
Sun 06:24:00 PM 26.9559 -81.7225 North  Level FlightAware Approximate
Sun 06:25:00 PM 26.9966 -81.7204 North  Level FlightAware Approximate
Sun 06:26:00 PM 27.0373 -81.7182 North  Level FlightAware Approximate
Sun 06:27:00 PM 27.0780 -81.7160 North  Level FlightAware Approximate
Sun 06:28:00 PM 27.1187 -81.7137 North  Level FlightAware Approximate
Sun 06:29:00 PM 27.1594 -81.7113 North  Level FlightAware Approximate
Sun 06:30:00 PM 27.2001 -81.7090 North  Level FlightAware Approximate
Sun 06:31:00 PM 27.2408 -81.7067 North  Level FlightAware Approximate
Sun 06:32:00 PM 27.2815 -81.7044 North  Level FlightAware Approximate
Sun 06:33:00 PM 27.3222 -81.7020 North  Level FlightAware Approximate
Sun 06:34:00 PM 27.3629 -81.6997 North  Level FlightAware Approximate
Sun 06:35:00 PM 27.4036 -81.6973 North  Level FlightAware Approximate
Sun 06:36:00 PM 27.4443 -81.6950 North  Level FlightAware Approximate
Sun 06:37:00 PM 27.4850 -81.6926 North  Level FlightAware Approximate
Sun 06:38:00 PM 27.5257 -81.6903 North  Level FlightAware Approximate
Sun 06:39:00 PM 27.5664 -81.6879 North  Level FlightAware Approximate
Sun 06:40:00 PM 27.6071 -81.6856 North  Level FlightAware Approximate
Sun 06:41:00 PM 27.6478 -81.6832 North  Level FlightAware Approximate
Sun 06:42:00 PM 27.6885 -81.6809 North  Level FlightAware Approximate
Sun 06:43:00 PM 27.7292 -81.6785 North  Level FlightAware Approximate
Sun 06:44:00 PM 27.7699 -81.6762 North  Level FlightAware Approximate
Sun 06:45:00 PM 27.8106 -81.6738 North  Level FlightAware Approximate
Sun 06:46:00 PM 27.8513 -81.6714 North  Level FlightAware Approximate
Sun 06:47:00 PM 27.8920 -81.6691 North  Level FlightAware Approximate
Sun 06:48:00 PM 27.9327 -81.6667 North  Level FlightAware Approximate
Sun 06:49:00 PM 27.9734 -81.6642 North  Level FlightAware Approximate
Sun 06:50:00 PM 28.0141 -81.6617 North  Level FlightAware Approximate
Sun 06:51:00 PM 28.0548 -81.6591 North  Level FlightAware Approximate
Sun 06:52:00 PM 28.0955 -81.6566 North  Level FlightAware Approximate
Sun 06:53:00 PM 28.1362 -81.6541 North  Level FlightAware Approximate
Sun 06:54:00 PM 28.1769 -81.6516 North  Level FlightAware Approximate
Sun 06:55:00 PM 28.2176 -81.6490 North  Level FlightAware Approximate
Sun 06:56:00 PM 28.2583 -81.6465 North  Level FlightAware Approximate
Sun 06:57:00 PM 28.2990 -81.6440 North  Level FlightAware Approximate
Sun 06:58:00 PM 28.3396 -81.6414 North  Level FlightAware Approximate
Sun 06:59:00 PM 28.3803 -81.6389 North  Level FlightAware Approximate
Sun 07:00:00 PM 28.4210 -81.6364 North  Level FlightAware Approximate
Sun 07:01:00 PM 28.4617 -81.6338 North  Level FlightAware Approximate
Sun 07:02:00 PM 28.5024 -81.6313 North  Level FlightAware Approximate
Sun 07:03:00 PM 28.5431 -81.6287 North  Level FlightAware Approximate
Sun 07:04:00 PM 28.5838 -81.6262 North  Level FlightAware Approximate
Sun 07:05:00 PM 28.6245 -81.6236 North  Level FlightAware Approximate
Sun 07:06:00 PM 28.6652 -81.6211 North  Level FlightAware Approximate
Sun 07:07:00 PM 28.7059 -81.6185 North  Level FlightAware Approximate
Sun 07:08:00 PM 28.7466 -81.6160 North  Level FlightAware Approximate
Sun 07:09:00 PM 28.7873 -81.6134 North  Level FlightAware Approximate
Sun 07:10:00 PM 28.8280 -81.6108 North  Level FlightAware Approximate
Sun 07:11:00 PM 28.8687 -81.6083 North  Level FlightAware Approximate
Sun 07:12:00 PM 28.9093 -81.6057 North  Level FlightAware Approximate
Sun 07:13:00 PM 28.9500 -81.6031 North  Level FlightAware Approximate
Sun 07:14:00 PM 28.9907 -81.6006 North  Level FlightAware Approximate
Sun 07:15:00 PM 29.0314 -81.5978 North  Level FlightAware Approximate
Sun 07:16:00 PM 29.0721 -81.5950 North  Level FlightAware Approximate
Sun 07:17:00 PM 29.1128 -81.5922 North  Level FlightAware Approximate
Sun 07:18:00 PM 29.1535 -81.5893 North  Level FlightAware Approximate
Sun 07:19:00 PM 29.1941 -81.5865 North  Level FlightAware Approximate
Sun 07:20:00 PM 29.2348 -81.5837 North  Level FlightAware Approximate
Sun 07:21:00 PM 29.2755 -81.5809 North  Level FlightAware Approximate
Sun 07:22:00 PM 29.3162 -81.5780 North  Level FlightAware Approximate
Sun 07:23:00 PM 29.3568 -81.5752 North  Level FlightAware Approximate
Sun 07:24:00 PM 29.3975 -81.5723 North  Level FlightAware Approximate
Sun 07:25:00 PM 29.4382 -81.5695 North  Level FlightAware Approximate
Sun 07:26:00 PM 29.4789 -81.5667 North  Level FlightAware Approximate
Sun 07:27:00 PM 29.5196 -81.5638 North  Level FlightAware Approximate
Sun 07:28:00 PM 29.5602 -81.5610 North  Level FlightAware Approximate
Sun 07:29:00 PM 29.6009 -81.5581 North  Level FlightAware Approximate
Sun 07:30:00 PM 29.6416 -81.5553 North  Level FlightAware Approximate
Sun 07:31:00 PM 29.6823 -81.5524 North  Level FlightAware Approximate
Sun 07:32:00 PM 29.7229 -81.5490 North  Level FlightAware Approximate
Sun 07:33:00 PM 29.7632 -81.5422 North  Level FlightAware Approximate
Sun 07:34:00 PM 29.8036 -81.5355 North  Level FlightAware Approximate
Sun 07:35:00 PM 29.8442 -81.5333 North  Level FlightAware Approximate
Sun 07:36:00 PM 29.8850 -81.5333 360° North  Level FlightAware Approximate
Sun 07:37:00 PM 29.9257 -81.5333 360° North  Level FlightAware Approximate
Sun 07:38:00 PM 29.9665 -81.5333 360° North  Level FlightAware Approximate
Sun 07:39:00 PM 30.0072 -81.5333 North  Level FlightAware Approximate
Sun 07:40:00 PM 30.0479 -81.5311 North  Level FlightAware Approximate
Sun 07:41:00 PM 30.0886 -81.5282 North  Level FlightAware Approximate
Sun 07:42:00 PM 30.1293 -81.5253 North  Level FlightAware Approximate
Sun 07:43:00 PM 30.1699 -81.5224 North  Level FlightAware Approximate
Sun 07:44:00 PM 30.2106 -81.5195 North  Level FlightAware Approximate
Sun 07:45:00 PM 30.2513 -81.5164 10° North  Level FlightAware Approximate
Sun 07:46:00 PM 30.2914 -81.5084 10° North  Level FlightAware Approximate
Sun 07:47:00 PM 30.3316 -81.5004 10° North  Level FlightAware Approximate
Sun 07:48:00 PM 30.3333 -81.5000 10° North  Level FlightAware Approximate
Sun 07:49:00 PM 30.3363 -81.5144 North  Level Estimated
Sun 07:50:00 PM 30.3363 -81.5144 104° East  Level Estimated
Sun 07:51:00 PM 30.3363 -81.5144 10° North  Level Estimated
Sun 07:52:00 PM 30.3363 -81.5144 104° East  Level Estimated
Sun 07:53:00 PM 30.3363 -81.5144 104° East  Level Estimated
Sun 07:54:00 PM 30.3363 -81.5144 10° North  Level Estimated
Sun 07:55:00 PM 30.3363 -81.5144 104° East  Level Estimated
Sun 07:56:00 PM 30.3363 -81.5144 104° East  Level Estimated
Sun 07:57:00 PM 30.3363 -81.5144 10° North  Level Estimated
Sun 07:58:00 PM 30.3363 -81.5144 104° East  Level Estimated
Sun 07:59:00 PM 30.3363 -81.5144 104° East  Level Estimated
Sun 08:00:00 PM 30.3363 -81.5144 10° North  Level Estimated
Sun 08:01:00 PM 30.3363 -81.5144 104° East  Level Estimated
Sun 08:02:00 PM 30.3363 -81.5144 104° East  Level Estimated

Login

Don't have an account? Register now (free) for customized features, flight alerts, and more!